Terminal Aerodrome Forecast
Issued by NWS

Home | Current Version | Previous Version | Text Only | Print | Product List | Glossary On
Versions: 1 2 3 4 5 6 7 8 9 10 11 12 13
000
FTUS45 KPSR 202340
TAFBLH
TAF
KBLH 202340Z 2100/2124 20024G32KT 6SM -SHRA BR BKN040 OVC050
      TEMPO 2100/2104 5SM SHRA BR BKN030
     FM210600 23018G26KT P6SM VCSH BKN080
     FM210900 26020G30KT P6SM FEW050 SCT150=

USA.gov is the U.S. government's official web portal to all federal, state and local government web resources and services.